sensor_id;sensor_type;location;lat;lon;timestamp;pressure;altitude;pressure_sealevel;temperature;humidity
50368;BME280;36281;34.132;-118.018;2023-05-23T00:00:25;99737.41;;;26.33;49.92
50368;BME280;36281;34.132;-118.018;2023-05-23T00:02:54;99728.63;;;26.27;50.29
50368;BME280;36281;34.132;-118.018;2023-05-23T00:05:23;99727.19;;;26.21;50.24
50368;BME280;36281;34.132;-118.018;2023-05-23T00:07:54;99724.63;;;26.16;50.45
50368;BME280;36281;34.132;-118.018;2023-05-23T00:10:23;99725.59;;;26.11;50.89
50368;BME280;36281;34.132;-118.018;2023-05-23T00:12:52;99723.19;;;26.10;50.73
50368;BME280;36281;34.132;-118.018;2023-05-23T00:15:23;99721.75;;;26.03;50.70
50368;BME280;36281;34.132;-118.018;2023-05-23T00:17:53;99718.06;;;25.99;50.86
50368;BME280;36281;34.132;-118.018;2023-05-23T00:20:22;99728.94;;;25.91;51.08
50368;BME280;36281;34.132;-118.018;2023-05-23T00:22:51;99723.94;;;25.84;51.04
50368;BME280;36281;34.132;-118.018;2023-05-23T00:25:20;99737.34;;;25.81;51.32
50368;BME280;36281;34.132;-118.018;2023-05-23T00:27:49;99708.41;;;25.67;51.53
50368;BME280;36281;34.132;-118.018;2023-05-23T00:30:18;99726.28;;;25.68;51.86
50368;BME280;36281;34.132;-118.018;2023-05-23T00:32:49;99733.44;;;25.64;51.52
50368;BME280;36281;34.132;-118.018;2023-05-23T00:35:21;99731.69;;;25.60;51.66
50368;BME280;36281;34.132;-118.018;2023-05-23T00:37:51;99731.81;;;25.55;51.88
50368;BME280;36281;34.132;-118.018;2023-05-23T00:40:22;99736.91;;;25.47;51.71
50368;BME280;36281;34.132;-118.018;2023-05-23T00:42:51;99731.94;;;25.41;51.97
50368;BME280;36281;34.132;-118.018;2023-05-23T00:45:20;99734.31;;;25.34;52.12
50368;BME280;36281;34.132;-118.018;2023-05-23T00:47:51;99728.38;;;25.23;52.45
50368;BME280;36281;34.132;-118.018;2023-05-23T00:50:21;99733.00;;;25.22;52.59
50368;BME280;36281;34.132;-118.018;2023-05-23T00:52:50;99737.56;;;25.13;52.71
50368;BME280;36281;34.132;-118.018;2023-05-23T00:55:19;99740.72;;;25.07;52.99
50368;BME280;36281;34.132;-118.018;2023-05-23T00:57:48;99739.34;;;24.95;52.83
50368;BME280;36281;34.132;-118.018;2023-05-23T01:00:18;99740.91;;;24.88;53.40
50368;BME280;36281;34.132;-118.018;2023-05-23T01:02:48;99734.31;;;24.80;53.78
50368;BME280;36281;34.132;-118.018;2023-05-23T01:05:22;99739.38;;;24.73;54.24
50368;BME280;36281;34.132;-118.018;2023-05-23T01:07:54;99748.56;;;24.63;53.71
50368;BME280;36281;34.132;-118.018;2023-05-23T01:10:25;99745.28;;;24.53;54.10
50368;BME280;36281;34.132;-118.018;2023-05-23T01:13:05;99734.88;;;24.46;54.96
50368;BME280;36281;34.132;-118.018;2023-05-23T01:15:39;99737.69;;;24.41;54.92
50368;BME280;36281;34.132;-118.018;2023-05-23T01:18:15;99742.72;;;24.34;55.33
50368;BME280;36281;34.132;-118.018;2023-05-23T01:20:49;99734.31;;;24.21;55.40
50368;BME280;36281;34.132;-118.018;2023-05-23T01:26:32;99758.41;;;24.09;55.69
50368;BME280;36281;34.132;-118.018;2023-05-23T01:29:12;99760.75;;;24.02;55.93
50368;BME280;36281;34.132;-118.018;2023-05-23T01:31:45;99767.66;;;23.94;56.62
50368;BME280;36281;34.132;-118.018;2023-05-23T01:34:18;99774.28;;;23.88;56.67
50368;BME280;36281;34.132;-118.018;2023-05-23T01:36:49;99774.38;;;23.83;56.68
50368;BME280;36281;34.132;-118.018;2023-05-23T01:39:18;99769.38;;;23.77;56.66
50368;BME280;36281;34.132;-118.018;2023-05-23T01:41:48;99776.59;;;23.67;56.85
50368;BME280;36281;34.132;-118.018;2023-05-23T01:44:20;99775.03;;;23.61;57.10
50368;BME280;36281;34.132;-118.018;2023-05-23T01:46:50;99771.94;;;23.54;57.27
50368;BME280;36281;34.132;-118.018;2023-05-23T01:49:20;99768.81;;;23.47;57.42
50368;BME280;36281;34.132;-118.018;2023-05-23T01:51:50;99774.34;;;23.42;57.82
50368;BME280;36281;34.132;-118.018;2023-05-23T01:54:19;99779.66;;;23.33;57.85
50368;BME280;36281;34.132;-118.018;2023-05-23T01:56:49;99783.81;;;23.26;58.41
50368;BME280;36281;34.132;-118.018;2023-05-23T01:59:20;99794.22;;;23.18;58.37
50368;BME280;36281;34.132;-118.018;2023-05-23T02:01:49;99793.31;;;23.09;58.82
50368;BME280;36281;34.132;-118.018;2023-05-23T02:04:18;99793.47;;;22.99;58.89
50368;BME280;36281;34.132;-118.018;2023-05-23T02:06:48;99785.53;;;22.89;59.15
50368;BME280;36281;34.132;-118.018;2023-05-23T02:09:17;99775.53;;;22.70;59.40
50368;BME280;36281;34.132;-118.018;2023-05-23T02:11:46;99782.75;;;22.75;59.82
50368;BME280;36281;34.132;-118.018;2023-05-23T02:14:15;99796.63;;;22.68;60.34
50368;BME280;36281;34.132;-118.018;2023-05-23T02:16:47;99801.59;;;22.61;60.25
50368;BME280;36281;34.132;-118.018;2023-05-23T02:19:16;99805.75;;;22.54;60.45
50368;BME280;36281;34.132;-118.018;2023-05-23T02:21:45;99800.22;;;22.45;60.60
50368;BME280;36281;34.132;-118.018;2023-05-23T02:24:15;99792.25;;;22.35;61.04
50368;BME280;36281;34.132;-118.018;2023-05-23T02:26:44;99791.00;;;22.27;61.41
50368;BME280;36281;34.132;-118.018;2023-05-23T02:29:13;99792.47;;;22.19;61.84
50368;BME280;36281;34.132;-118.018;2023-05-23T02:31:42;99796.03;;;22.15;61.84
50368;BME280;36281;34.132;-118.018;2023-05-23T02:34:13;99793.69;;;22.08;62.05
50368;BME280;36281;34.132;-118.018;2023-05-23T02:36:42;99791.03;;;22.03;62.17
50368;BME280;36281;34.132;-118.018;2023-05-23T02:39:11;99779.84;;;21.91;62.54
50368;BME280;36281;34.132;-118.018;2023-05-23T02:41:40;99793.09;;;21.87;62.57
50368;BME280;36281;34.132;-118.018;2023-05-23T02:44:09;99789.66;;;21.82;62.91
50368;BME280;36281;34.132;-118.018;2023-05-23T02:46:39;99779.25;;;21.75;63.20
50368;BME280;36281;34.132;-118.018;2023-05-23T02:49:08;99787.69;;;21.68;63.47
50368;BME280;36281;34.132;-118.018;2023-05-23T02:51:39;99786.91;;;21.63;63.86
50368;BME280;36281;34.132;-118.018;2023-05-23T02:54:08;99795.34;;;21.56;64.11
50368;BME280;36281;34.132;-118.018;2023-05-23T02:56:37;99786.81;;;21.49;64.50
50368;BME280;36281;34.132;-118.018;2023-05-23T02:59:06;99789.31;;;21.40;64.63
50368;BME280;36281;34.132;-118.018;2023-05-23T03:01:35;99779.44;;;21.31;64.98
50368;BME280;36281;34.132;-118.018;2023-05-23T03:04:05;99793.19;;;21.29;65.35
50368;BME280;36281;34.132;-118.018;2023-05-23T03:06:34;99795.69;;;21.21;65.66
50368;BME280;36281;34.132;-118.018;2023-05-23T03:09:05;99796.81;;;21.14;65.90
50368;BME280;36281;34.132;-118.018;2023-05-23T03:11:35;99799.03;;;21.07;66.14
50368;BME280;36281;34.132;-118.018;2023-05-23T03:14:04;99800.72;;;20.98;66.42
50368;BME280;36281;34.132;-118.018;2023-05-23T03:16:33;99791.63;;;20.94;66.59
50368;BME280;36281;34.132;-118.018;2023-05-23T03:19:02;99794.59;;;20.87;66.86
50368;BME280;36281;34.132;-118.018;2023-05-23T03:21:32;99788.03;;;20.70;67.05
50368;BME280;36281;34.132;-118.018;2023-05-23T03:24:04;99804.94;;;20.75;67.16
50368;BME280;36281;34.132;-118.018;2023-05-23T03:26:34;99809.56;;;20.70;67.49
50368;BME280;36281;34.132;-118.018;2023-05-23T03:29:03;99802.41;;;20.55;67.96
50368;BME280;36281;34.132;-118.018;2023-05-23T03:31:33;99825.22;;;20.57;67.99
50368;BME280;36281;34.132;-118.018;2023-05-23T03:34:02;99816.94;;;20.44;68.48
50368;BME280;36281;34.132;-118.018;2023-05-23T03:36:33;99825.28;;;20.42;68.75
50368;BME280;36281;34.132;-118.018;2023-05-23T03:39:05;99817.81;;;20.34;68.93
50368;BME280;36281;34.132;-118.018;2023-05-23T03:41:34;99819.44;;;20.30;69.18
50368;BME280;36281;34.132;-118.018;2023-05-23T03:44:03;99829.66;;;20.28;69.46
50368;BME280;36281;34.132;-118.018;2023-05-23T03:46:32;99827.81;;;20.23;69.60
50368;BME280;36281;34.132;-118.018;2023-05-23T03:49:01;99829.19;;;20.16;69.85
50368;BME280;36281;34.132;-118.018;2023-05-23T03:51:30;99825.19;;;20.08;70.23
50368;BME280;36281;34.132;-118.018;2023-05-23T03:53:59;99820.94;;;19.97;70.62
50368;BME280;36281;34.132;-118.018;2023-05-23T03:56:30;99829.81;;;19.92;70.95
50368;BME280;36281;34.132;-118.018;2023-05-23T03:58:59;99833.31;;;19.87;71.14
50368;BME280;36281;34.132;-118.018;2023-05-23T04:01:29;99833.88;;;19.84;71.44
50368;BME280;36281;34.132;-118.018;2023-05-23T04:03:58;99832.81;;;19.80;71.59
50368;BME280;36281;34.132;-118.018;2023-05-23T04:06:27;99830.16;;;19.75;71.95
50368;BME280;36281;34.132;-118.018;2023-05-23T04:08:58;99829.88;;;19.72;72.17
50368;BME280;36281;34.132;-118.018;2023-05-23T04:11:30;99840.09;;;19.75;72.26
50368;BME280;36281;34.132;-118.018;2023-05-23T04:13:59;99836.59;;;19.74;72.42
50368;BME280;36281;34.132;-118.018;2023-05-23T04:16:29;99835.53;;;19.75;72.34
50368;BME280;36281;34.132;-118.018;2023-05-23T04:19:00;99845.19;;;19.76;72.39
50368;BME280;36281;34.132;-118.018;2023-05-23T04:21:33;99840.09;;;19.75;72.61
50368;BME280;36281;34.132;-118.018;2023-05-23T04:24:02;99845.72;;;19.73;72.73
50368;BME280;36281;34.132;-118.018;2023-05-23T04:26:33;99845.19;;;19.71;72.81
50368;BME280;36281;34.132;-118.018;2023-05-23T04:29:03;99858.38;;;19.68;73.09
50368;BME280;36281;34.132;-118.018;2023-05-23T04:31:33;99865.91;;;19.71;73.03
50368;BME280;36281;34.132;-118.018;2023-05-23T04:34:02;99856.47;;;19.68;73.30
50368;BME280;36281;34.132;-118.018;2023-05-23T04:36:31;99849.00;;;19.60;73.49
50368;BME280;36281;34.132;-118.018;2023-05-23T04:39:00;99860.78;;;19.64;73.47
50368;BME280;36281;34.132;-118.018;2023-05-23T04:41:29;99870.19;;;19.61;73.68
50368;BME280;36281;34.132;-118.018;2023-05-23T04:44:00;99867.22;;;19.58;73.75
50368;BME280;36281;34.132;-118.018;2023-05-23T04:46:29;99869.91;;;19.58;74.02
50368;BME280;36281;34.132;-118.018;2023-05-23T04:48:59;99877.16;;;19.52;74.09
50368;BME280;36281;34.132;-118.018;2023-05-23T04:51:29;99869.91;;;19.48;74.35
50368;BME280;36281;34.132;-118.018;2023-05-23T04:53:58;99881.72;;;19.52;74.52
50368;BME280;36281;34.132;-118.018;2023-05-23T04:56:27;99875.03;;;19.49;74.58
50368;BME280;36281;34.132;-118.018;2023-05-23T04:58:56;99876.38;;;19.47;74.60
50368;BME280;36281;34.132;-118.018;2023-05-23T05:01:27;99886.03;;;19.48;74.89
50368;BME280;36281;34.132;-118.018;2023-05-23T05:03:56;99889.53;;;19.48;75.05
50368;BME280;36281;34.132;-118.018;2023-05-23T05:06:25;99894.09;;;19.48;74.92
50368;BME280;36281;34.132;-118.018;2023-05-23T05:08:56;99889.53;;;19.48;75.12
50368;BME280;36281;34.132;-118.018;2023-05-23T05:11:25;99899.47;;;19.48;75.06
50368;BME280;36281;34.132;-118.018;2023-05-23T05:13:54;99900.25;;;19.48;75.17
50368;BME280;36281;34.132;-118.018;2023-05-23T05:16:23;99899.22;;;19.49;75.04
50368;BME280;36281;34.132;-118.018;2023-05-23T05:18:54;99902.41;;;19.51;75.14
50368;BME280;36281;34.132;-118.018;2023-05-23T05:21:24;99895.44;;;19.50;74.93
50368;BME280;36281;34.132;-118.018;2023-05-23T05:23:53;99901.06;;;19.49;75.00
50368;BME280;36281;34.132;-118.018;2023-05-23T05:26:22;99892.75;;;19.45;75.05
50368;BME280;36281;34.132;-118.018;2023-05-23T05:28:52;99906.19;;;19.45;75.28
50368;BME280;36281;34.132;-118.018;2023-05-23T05:31:21;99903.75;;;19.44;75.38
50368;BME280;36281;34.132;-118.018;2023-05-23T05:33:50;99904.31;;;19.46;75.46
50368;BME280;36281;34.132;-118.018;2023-05-23T05:36:21;99910.19;;;19.48;75.41
50368;BME280;36281;34.132;-118.018;2023-05-23T05:38:50;99913.97;;;19.47;75.19
50368;BME280;36281;34.132;-118.018;2023-05-23T05:41:20;99911.00;;;19.48;75.40
50368;BME280;36281;34.132;-118.018;2023-05-23T05:43:50;99919.88;;;19.49;75.42
50368;BME280;36281;34.132;-118.018;2023-05-23T05:46:19;99925.50;;;19.47;75.32
50368;BME280;36281;34.132;-118.018;2023-05-23T05:48:48;99924.44;;;19.48;75.35
50368;BME280;36281;34.132;-118.018;2023-05-23T05:51:17;99925.50;;;19.47;75.58
50368;BME280;36281;34.132;-118.018;2023-05-23T05:53:48;99928.47;;;19.46;75.35
50368;BME280;36281;34.132;-118.018;2023-05-23T05:56:17;99930.38;;;19.40;75.52
50368;BME280;36281;34.132;-118.018;2023-05-23T05:58:46;99930.38;;;19.35;75.42
50368;BME280;36281;34.132;-118.018;2023-05-23T06:01:15;99939.47;;;19.34;75.86
50368;BME280;36281;34.132;-118.018;2023-05-23T06:03:44;99939.22;;;19.35;75.89
50368;BME280;36281;34.132;-118.018;2023-05-23T06:06:14;99940.28;;;19.29;75.88
50368;BME280;36281;34.132;-118.018;2023-05-23T06:08:43;99942.44;;;19.27;76.16
50368;BME280;36281;34.132;-118.018;2023-05-23T06:11:14;99943.78;;;19.25;76.29
50368;BME280;36281;34.132;-118.018;2023-05-23T06:13:43;99945.38;;;19.26;76.33
50368;BME280;36281;34.132;-118.018;2023-05-23T06:16:12;99943.78;;;19.25;76.67
50368;BME280;36281;34.132;-118.018;2023-05-23T06:18:43;99952.88;;;19.24;76.50
50368;BME280;36281;34.132;-118.018;2023-05-23T06:21:12;99948.31;;;19.24;76.48
50368;BME280;36281;34.132;-118.018;2023-05-23T06:23:41;99954.75;;;19.23;76.41
50368;BME280;36281;34.132;-118.018;2023-05-23T06:26:10;99947.50;;;19.24;76.70
50368;BME280;36281;34.132;-118.018;2023-05-23T06:28:41;99957.44;;;19.23;76.78
50368;BME280;36281;34.132;-118.018;2023-05-23T06:31:10;99948.88;;;19.16;76.66
50368;BME280;36281;34.132;-118.018;2023-05-23T06:33:39;99962.03;;;19.23;76.70
50368;BME280;36281;34.132;-118.018;2023-05-23T06:36:09;99959.88;;;19.20;76.77
50368;BME280;36281;34.132;-118.018;2023-05-23T06:38:38;99963.09;;;19.22;76.90
50368;BME280;36281;34.132;-118.018;2023-05-23T06:41:07;99962.00;;;19.18;77.03
50368;BME280;36281;34.132;-118.018;2023-05-23T06:43:36;99966.31;;;19.19;76.96
50368;BME280;36281;34.132;-118.018;2023-05-23T06:46:07;99960.41;;;19.11;77.02
50368;BME280;36281;34.132;-118.018;2023-05-23T06:48:36;99962.81;;;19.13;77.07
50368;BME280;36281;34.132;-118.018;2023-05-23T06:51:06;99974.91;;;19.16;76.95
50368;BME280;36281;34.132;-118.018;2023-05-23T06:53:35;99978.66;;;19.09;77.05
50368;BME280;36281;34.132;-118.018;2023-05-23T06:56:04;99961.19;;;19.02;77.22
50368;BME280;36281;34.132;-118.018;2023-05-23T06:58:33;99972.72;;;19.07;77.31
50368;BME280;36281;34.132;-118.018;2023-05-23T07:01:03;99979.19;;;19.06;77.53
50368;BME280;36281;34.132;-118.018;2023-05-23T07:03:34;99976.75;;;19.05;77.56
50368;BME280;36281;34.132;-118.018;2023-05-23T07:06:03;99974.88;;;19.00;77.62
50368;BME280;36281;34.132;-118.018;2023-05-23T07:08:32;99981.84;;;19.01;77.82
50368;BME280;36281;34.132;-118.018;2023-05-23T07:11:02;99977.78;;;18.99;77.80
50368;BME280;36281;34.132;-118.018;2023-05-23T07:13:31;99981.28;;;18.99;77.75
50368;BME280;36281;34.132;-118.018;2023-05-23T07:16:00;99977.00;;;18.98;78.10
50368;BME280;36281;34.132;-118.018;2023-05-23T07:18:29;99977.28;;;18.97;78.13
50368;BME280;36281;34.132;-118.018;2023-05-23T07:21:00;99975.38;;;18.92;78.27
50368;BME280;36281;34.132;-118.018;2023-05-23T07:23:32;99980.22;;;18.90;78.32
50368;BME280;36281;34.132;-118.018;2023-05-23T07:26:04;99969.47;;;18.90;78.40
50368;BME280;36281;34.132;-118.018;2023-05-23T07:28:33;99977.53;;;18.90;78.61
50368;BME280;36281;34.132;-118.018;2023-05-23T07:31:02;99977.78;;;18.89;78.92
50368;BME280;36281;34.132;-118.018;2023-05-23T07:33:31;99980.72;;;18.87;79.02
50368;BME280;36281;34.132;-118.018;2023-05-23T07:36:03;99978.81;;;18.82;79.22
50368;BME280;36281;34.132;-118.018;2023-05-23T07:38:33;99980.19;;;18.80;79.34
50368;BME280;36281;34.132;-118.018;2023-05-23T07:41:02;99976.63;;;18.74;79.55
50368;BME280;36281;34.132;-118.018;2023-05-23T07:43:39;99968.78;;;18.63;79.83
50368;BME280;36281;34.132;-118.018;2023-05-23T07:46:08;99973.38;;;18.67;80.06
50368;BME280;36281;34.132;-118.018;2023-05-23T07:48:37;99987.06;;;18.66;80.35
50368;BME280;36281;34.132;-118.018;2023-05-23T07:51:08;99987.31;;;18.64;80.17
50368;BME280;36281;34.132;-118.018;2023-05-23T07:53:37;99987.31;;;18.64;80.36
50368;BME280;36281;34.132;-118.018;2023-05-23T07:56:07;99981.69;;;18.60;80.77
50368;BME280;36281;34.132;-118.018;2023-05-23T07:58:36;99978.44;;;18.58;80.88
50368;BME280;36281;34.132;-118.018;2023-05-23T08:01:05;99984.59;;;18.59;80.93
50368;BME280;36281;34.132;-118.018;2023-05-23T08:03:35;99989.16;;;18.58;81.23
50368;BME280;36281;34.132;-118.018;2023-05-23T08:06:05;99987.28;;;18.59;81.50
50368;BME280;36281;34.132;-118.018;2023-05-23T08:08:36;99985.94;;;18.56;81.78
50368;BME280;36281;34.132;-118.018;2023-05-23T08:11:05;99989.69;;;18.55;82.36
50368;BME280;36281;34.132;-118.018;2023-05-23T08:13:35;99988.91;;;18.55;82.81
50368;BME280;36281;34.132;-118.018;2023-05-23T08:16:04;99990.72;;;18.49;82.81
50368;BME280;36281;34.132;-118.018;2023-05-23T08:18:33;99986.69;;;18.47;83.02
50368;BME280;36281;34.132;-118.018;2023-05-23T08:21:04;99991.50;;;18.45;83.34
50368;BME280;36281;34.132;-118.018;2023-05-23T08:23:33;99994.44;;;18.43;83.58
50368;BME280;36281;34.132;-118.018;2023-05-23T08:26:03;99994.72;;;18.42;83.55
50368;BME280;36281;34.132;-118.018;2023-05-23T08:28:33;99990.16;;;18.42;83.59
50368;BME280;36281;34.132;-118.018;2023-05-23T08:31:02;99993.34;;;18.39;83.64
50368;BME280;36281;34.132;-118.018;2023-05-23T08:33:31;99983.66;;;18.33;83.89
50368;BME280;36281;34.132;-118.018;2023-05-23T08:36:00;99982.59;;;18.34;84.35
50368;BME280;36281;34.132;-118.018;2023-05-23T08:38:29;99984.75;;;18.32;84.63
50368;BME280;36281;34.132;-118.018;2023-05-23T08:41:01;99986.88;;;18.30;85.21
50368;BME280;36281;34.132;-118.018;2023-05-23T08:43:31;99990.59;;;18.29;85.47
50368;BME280;36281;34.132;-118.018;2023-05-23T08:46:02;99987.41;;;18.27;85.78
50368;BME280;36281;34.132;-118.018;2023-05-23T08:48:34;99990.88;;;18.27;85.88
50368;BME280;36281;34.132;-118.018;2023-05-23T08:51:06;99995.97;;;18.29;86.09
50368;BME280;36281;34.132;-118.018;2023-05-23T08:53:39;99992.75;;;18.27;86.28
50368;BME280;36281;34.132;-118.018;2023-05-23T08:56:09;100003.47;;;18.27;86.27
50368;BME280;36281;34.132;-118.018;2023-05-23T08:58:41;100009.66;;;18.27;86.40
50368;BME280;36281;34.132;-118.018;2023-05-23T09:01:11;100002.41;;;18.28;86.50
50368;BME280;36281;34.132;-118.018;2023-05-23T09:03:41;99996.50;;;18.26;86.61
50368;BME280;36281;34.132;-118.018;2023-05-23T09:06:11;99999.72;;;18.28;86.94
50368;BME280;36281;34.132;-118.018;2023-05-23T09:08:41;99998.38;;;18.25;87.01
50368;BME280;36281;34.132;-118.018;2023-05-23T09:11:13;99989.25;;;18.21;87.53
50368;BME280;36281;34.132;-118.018;2023-05-23T09:13:44;99995.41;;;18.22;87.32
50368;BME280;36281;34.132;-118.018;2023-05-23T09:16:15;99986.78;;;18.20;88.02
50368;BME280;36281;34.132;-118.018;2023-05-23T09:18:47;99988.44;;;18.21;88.22
50368;BME280;36281;34.132;-118.018;2023-05-23T09:21:16;99986.25;;;18.18;88.97
50368;BME280;36281;34.132;-118.018;2023-05-23T09:23:46;99984.91;;;18.15;89.76
50368;BME280;36281;34.132;-118.018;2023-05-23T09:26:15;99980.88;;;18.13;90.01
50368;BME280;36281;34.132;-118.018;2023-05-23T09:28:46;99989.69;;;18.08;90.16
50368;BME280;36281;34.132;-118.018;2023-05-23T09:31:16;99980.84;;;18.07;90.54
50368;BME280;36281;34.132;-118.018;2023-05-23T09:33:45;99984.81;;;18.05;90.85
50368;BME280;36281;34.132;-118.018;2023-05-23T09:36:16;99988.31;;;18.00;90.77
50368;BME280;36281;34.132;-118.018;2023-05-23T09:38:46;99979.16;;;17.96;90.96
50368;BME280;36281;34.132;-118.018;2023-05-23T09:41:20;99975.91;;;17.94;90.79
50368;BME280;36281;34.132;-118.018;2023-05-23T09:43:51;99976.19;;;17.93;91.18
50368;BME280;36281;34.132;-118.018;2023-05-23T09:46:22;99981.81;;;17.91;91.56
50368;BME280;36281;34.132;-118.018;2023-05-23T09:48:51;99982.88;;;17.90;92.01
50368;BME280;36281;34.132;-118.018;2023-05-23T09:51:22;99969.94;;;17.82;91.86
50368;BME280;36281;34.132;-118.018;2023-05-23T09:53:51;99969.41;;;17.85;91.95
50368;BME280;36281;34.132;-118.018;2023-05-23T09:56:21;99970.47;;;17.84;92.29
50368;BME280;36281;34.132;-118.018;2023-05-23T09:58:53;99962.44;;;17.84;92.28
50368;BME280;36281;34.132;-118.018;2023-05-23T10:01:25;99959.22;;;17.82;92.30
50368;BME280;36281;34.132;-118.018;2023-05-23T10:03:55;99961.09;;;17.81;92.47
50368;BME280;36281;34.132;-118.018;2023-05-23T10:06:30;99955.47;;;17.83;92.80
50368;BME280;36281;34.132;-118.018;2023-05-23T10:09:02;99953.06;;;17.81;92.99
50368;BME280;36281;34.132;-118.018;2023-05-23T10:14:39;99954.38;;;17.79;93.25
50368;BME280;36281;34.132;-118.018;2023-05-23T10:17:17;99954.91;;;17.76;92.92
50368;BME280;36281;34.132;-118.018;2023-05-23T10:19:52;99960.75;;;17.73;92.87
50368;BME280;36281;34.132;-118.018;2023-05-23T10:22:23;99965.56;;;17.71;92.69
50368;BME280;36281;34.132;-118.018;2023-05-23T10:24:53;99956.13;;;17.68;92.60
50368;BME280;36281;34.132;-118.018;2023-05-23T10:27:23;99959.88;;;17.67;92.78
50368;BME280;36281;34.132;-118.018;2023-05-23T10:29:53;99958.00;;;17.68;92.99
50368;BME280;36281;34.132;-118.018;2023-05-23T10:32:23;99953.72;;;17.67;93.03
50368;BME280;36281;34.132;-118.018;2023-05-23T10:34:58;99953.72;;;17.67;92.81
50368;BME280;36281;34.132;-118.018;2023-05-23T10:37:34;99953.97;;;17.65;92.93
50368;BME280;36281;34.132;-118.018;2023-05-23T10:40:12;99961.47;;;17.63;92.52
50368;BME280;36281;34.132;-118.018;2023-05-23T10:42:51;99959.03;;;17.62;92.80
50368;BME280;36281;34.132;-118.018;2023-05-23T10:45:24;99960.66;;;17.63;92.66
50368;BME280;36281;34.132;-118.018;2023-05-23T10:47:53;99954.19;;;17.58;92.26
50368;BME280;36281;34.132;-118.018;2023-05-23T10:50:33;99957.41;;;17.55;92.80
50368;BME280;36281;34.132;-118.018;2023-05-23T10:53:05;99959.25;;;17.55;93.31
50368;BME280;36281;34.132;-118.018;2023-05-23T10:55:35;99961.88;;;17.50;93.41
50368;BME280;36281;34.132;-118.018;2023-05-23T10:58:13;99960.25;;;17.49;93.86
50368;BME280;36281;34.132;-118.018;2023-05-23T11:00:53;99957.03;;;17.47;93.84
50368;BME280;36281;34.132;-118.018;2023-05-23T11:03:35;99962.41;;;17.47;94.28
50368;BME280;36281;34.132;-118.018;2023-05-23T11:06:06;99963.69;;;17.44;94.75
50368;BME280;36281;34.132;-118.018;2023-05-23T11:08:39;99959.91;;;17.40;94.32
50368;BME280;36281;34.132;-118.018;2023-05-23T11:11:15;99944.91;;;17.39;93.77
50368;BME280;36281;34.132;-118.018;2023-05-23T11:13:55;99954.59;;;17.45;94.07
50368;BME280;36281;34.132;-118.018;2023-05-23T11:16:27;99952.19;;;17.44;94.18
50368;BME280;36281;34.132;-118.018;2023-05-23T11:19:20;99944.97;;;17.44;94.59
50368;BME280;36281;34.132;-118.018;2023-05-23T11:21:52;99947.91;;;17.43;94.31
50368;BME280;36281;34.132;-118.018;2023-05-23T11:24:22;99943.31;;;17.38;94.24
50368;BME280;36281;34.132;-118.018;2023-05-23T11:26:56;99940.09;;;17.36;94.21
50368;BME280;36281;34.132;-118.018;2023-05-23T11:29:28;99947.56;;;17.34;93.85
50368;BME280;36281;34.132;-118.018;2023-05-23T11:31:59;99933.09;;;17.35;93.57
50368;BME280;36281;34.132;-118.018;2023-05-23T11:34:28;99940.31;;;17.35;93.69
50368;BME280;36281;34.132;-118.018;2023-05-23T11:36:57;99926.94;;;17.35;93.30
50368;BME280;36281;34.132;-118.018;2023-05-23T11:39:26;99931.50;;;17.34;93.14
50368;BME280;36281;34.132;-118.018;2023-05-23T11:41:59;99928.81;;;17.34;93.47
50368;BME280;36281;34.132;-118.018;2023-05-23T11:44:28;99920.78;;;17.34;93.78
50368;BME280;36281;34.132;-118.018;2023-05-23T11:47:03;99924.03;;;17.36;93.76
50368;BME280;36281;34.132;-118.018;2023-05-23T11:49:35;99923.22;;;17.36;93.79
50368;BME280;36281;34.132;-118.018;2023-05-23T11:52:07;99918.09;;;17.34;93.45
50368;BME280;36281;34.132;-118.018;2023-05-23T11:54:36;99917.81;;;17.30;93.73
50368;BME280;36281;34.132;-118.018;2023-05-23T11:57:07;99907.03;;;17.25;93.64
50368;BME280;36281;34.132;-118.018;2023-05-23T11:59:37;99908.13;;;17.24;94.36
50368;BME280;36281;34.132;-118.018;2023-05-23T12:02:08;99908.63;;;17.21;94.72
50368;BME280;36281;34.132;-118.018;2023-05-23T12:04:37;99907.22;;;17.14;94.57
50368;BME280;36281;34.132;-118.018;2023-05-23T12:07:06;99915.25;;;17.14;94.95
50368;BME280;36281;34.132;-118.018;2023-05-23T12:09:42;99915.25;;;17.14;95.44
50368;BME280;36281;34.132;-118.018;2023-05-23T12:12:12;99910.19;;;17.17;95.49
50368;BME280;36281;34.132;-118.018;2023-05-23T12:14:41;99900.25;;;17.13;95.66
50368;BME280;36281;34.132;-118.018;2023-05-23T12:17:13;99906.69;;;17.12;95.68
50368;BME280;36281;34.132;-118.018;2023-05-23T12:19:45;99908.59;;;17.16;95.90
50368;BME280;36281;34.132;-118.018;2023-05-23T12:22:14;99905.13;;;17.16;96.19
50368;BME280;36281;34.132;-118.018;2023-05-23T12:24:46;99902.66;;;17.14;96.00
50368;BME280;36281;34.132;-118.018;2023-05-23T12:27:16;99901.38;;;17.17;95.96
50368;BME280;36281;34.132;-118.018;2023-05-23T12:29:50;99891.44;;;17.12;95.87
50368;BME280;36281;34.132;-118.018;2023-05-23T12:32:24;99896.50;;;17.14;95.43
50368;BME280;36281;34.132;-118.018;2023-05-23T12:34:53;99900.00;;;17.14;94.97
50368;BME280;36281;34.132;-118.018;2023-05-23T12:37:22;99899.72;;;17.11;94.58
50368;BME280;36281;34.132;-118.018;2023-05-23T12:39:51;99893.53;;;17.10;94.25
50368;BME280;36281;34.132;-118.018;2023-05-23T12:42:21;99892.22;;;17.13;94.32
50368;BME280;36281;34.132;-118.018;2023-05-23T12:44:52;99877.69;;;17.03;94.88
50368;BME280;36281;34.132;-118.018;2023-05-23T12:47:23;99896.78;;;17.12;94.89
50368;BME280;36281;34.132;-118.018;2023-05-23T12:49:52;99894.91;;;17.13;94.98
50368;BME280;36281;34.132;-118.018;2023-05-23T12:52:21;99896.25;;;17.15;95.42